Terminal Aerodrome Forecast
Issued by NWS

Home | Current Version | Previous Version | Text Only | Print | Product List | Glossary On
Versions: 1 2 3 4 5 6 7 8 9 10 11 12 13 14 15 16 17 18 19 20 21 22 23 24 25
000
FTUS43 KLSX 212300
TAFSUS
TAF
KSUS 212330Z 2200/2224 16010KT P6SM SCT025 OVC035
     FM221300 14010KT P6SM BKN015 OVC040
     FM221600 14012KT 4SM -RA BR SCT008 OVC010=

USA.gov is the U.S. government's official web portal to all federal, state and local government web resources and services.